<?xml version="1.0" encoding="UTF-8" standalone="no" ?>
<gpx xmlns="http://www.topografix.com/GPX/1/1" xmlns:xsi="http://www.w3.org/2001/XMLSchema-instance" xsi:schemaLocation="http://www.topografix.com/GPX/1/1 http://www.topografix.com/GPX/1/1/gpx.xsd" version="1.1" creator="VisuGPX - https://www.visugpx.com">
  <metadata>
    <name>Base VRTT Gevaudan Lagogne</name>
  </metadata>
  <trk>
    <name><![CDATA[ESI0336 - CIRCUIT DU CHATEAU]]></name>
    <extensions>
      <line xmlns="http://www.topografix.com/GPX/gpx_style/0/2">
        <color>f71844</color>
        <width>4</width>
      </line>
    </extensions>
    <trkseg>
      <trkpt lat="44.75327" lon="3.72581">
        <ele>994.02374267578</ele>
        <time>2020-11-02T09:08:10.000Z</time>
      </trkpt>
      <trkpt lat="44.75334" lon="3.72587">
        <ele>995.51147460938</ele>
        <time>2020-11-02T09:08:10.002Z</time>
      </trkpt>
      <trkpt lat="44.75337" lon="3.72598">
        <ele>996.35131835938</ele>
        <time>2020-11-02T09:08:10.005Z</time>
      </trkpt>
      <trkpt lat="44.75336" lon="3.72647">
        <ele>998.37255859375</ele>
        <time>2020-11-02T09:08:10.015Z</time>
      </trkpt>
      <trkpt lat="44.75335" lon="3.72676">
        <ele>998.67980957031</ele>
        <time>2020-11-02T09:08:10.029Z</time>
      </trkpt>
      <trkpt lat="44.75322" lon="3.72716">
        <ele>998.96862792969</ele>
        <time>2020-11-02T09:08:10.050Z</time>
      </trkpt>
      <trkpt lat="44.75312" lon="3.7274">
        <ele>997.91522216797</ele>
        <time>2020-11-02T09:08:10.075Z</time>
      </trkpt>
      <trkpt lat="44.75311" lon="3.7275">
        <ele>998.23913574219</ele>
        <time>2020-11-02T09:08:10.101Z</time>
      </trkpt>
      <trkpt lat="44.75305" lon="3.72779">
        <ele>998.42553710938</ele>
        <time>2020-11-02T09:08:10.131Z</time>
      </trkpt>
      <trkpt lat="44.753" lon="3.72796">
        <ele>999.37005615234</ele>
        <time>2020-11-02T09:08:10.164Z</time>
      </trkpt>
      <trkpt lat="44.75295" lon="3.72807">
        <ele>1000.1259155273</ele>
        <time>2020-11-02T09:08:10.199Z</time>
      </trkpt>
      <trkpt lat="44.75283" lon="3.72822">
        <ele>1000.5453491211</ele>
        <time>2020-11-02T09:08:10.237Z</time>
      </trkpt>
      <trkpt lat="44.75263" lon="3.72826">
        <ele>999.00964355469</ele>
        <time>2020-11-02T09:08:10.279Z</time>
      </trkpt>
      <trkpt lat="44.75237" lon="3.72829">
        <ele>995.43395996094</ele>
        <time>2020-11-02T09:08:10.326Z</time>
      </trkpt>
      <trkpt lat="44.75224" lon="3.72835">
        <ele>994.05419921875</ele>
        <time>2020-11-02T09:08:10.376Z</time>
      </trkpt>
      <trkpt lat="44.75207" lon="3.72853">
        <ele>993.34631347656</ele>
        <time>2020-11-02T09:08:10.430Z</time>
      </trkpt>
      <trkpt lat="44.7517" lon="3.72882">
        <ele>997.85626220703</ele>
        <time>2020-11-02T09:08:10.493Z</time>
      </trkpt>
      <trkpt lat="44.7512" lon="3.72908">
        <ele>996.47027587891</ele>
        <time>2020-11-02T09:08:10.567Z</time>
      </trkpt>
      <trkpt lat="44.75087" lon="3.72918">
        <ele>997.36499023438</ele>
        <time>2020-11-02T09:08:10.647Z</time>
      </trkpt>
      <trkpt lat="44.75075" lon="3.72919">
        <ele>997.83288574219</ele>
        <time>2020-11-02T09:08:10.730Z</time>
      </trkpt>
      <trkpt lat="44.75073" lon="3.72917">
        <ele>997.52093505859</ele>
        <time>2020-11-02T09:08:10.813Z</time>
      </trkpt>
      <trkpt lat="44.75072" lon="3.72913">
        <ele>996.82507324219</ele>
        <time>2020-11-02T09:08:10.897Z</time>
      </trkpt>
      <trkpt lat="44.7505" lon="3.72918">
        <ele>998.25280761719</ele>
        <time>2020-11-02T09:08:10.985Z</time>
      </trkpt>
      <trkpt lat="44.75018" lon="3.72921">
        <ele>1000.5461425781</ele>
        <time>2020-11-02T09:08:11.080Z</time>
      </trkpt>
      <trkpt lat="44.74989" lon="3.72918">
        <ele>1003.9295654297</ele>
        <time>2020-11-02T09:08:11.180Z</time>
      </trkpt>
      <trkpt lat="44.74964" lon="3.7291">
        <ele>1005.4172973633</ele>
        <time>2020-11-02T09:08:11.286Z</time>
      </trkpt>
      <trkpt lat="44.74948" lon="3.72902">
        <ele>1005.6834106445</ele>
        <time>2020-11-02T09:08:11.395Z</time>
      </trkpt>
      <trkpt lat="44.74923" lon="3.72886">
        <ele>1005.3594360352</ele>
        <time>2020-11-02T09:08:11.509Z</time>
      </trkpt>
      <trkpt lat="44.749" lon="3.72864">
        <ele>1003.139831543</ele>
        <time>2020-11-02T09:08:11.629Z</time>
      </trkpt>
      <trkpt lat="44.74882" lon="3.72857">
        <ele>1004.0996704102</ele>
        <time>2020-11-02T09:08:11.753Z</time>
      </trkpt>
      <trkpt lat="44.7486" lon="3.72856">
        <ele>1007.5283813477</ele>
        <time>2020-11-02T09:08:11.881Z</time>
      </trkpt>
      <trkpt lat="44.74846" lon="3.72852">
        <ele>1008.6711425781</ele>
        <time>2020-11-02T09:08:12.012Z</time>
      </trkpt>
      <trkpt lat="44.7481" lon="3.72831">
        <ele>1008.9230957031</ele>
        <time>2020-11-02T09:08:12.151Z</time>
      </trkpt>
      <trkpt lat="44.74733" lon="3.72786">
        <ele>1006.1705932617</ele>
        <time>2020-11-02T09:08:12.307Z</time>
      </trkpt>
      <trkpt lat="44.74691" lon="3.72761">
        <ele>1003.8967895508</ele>
        <time>2020-11-02T09:08:12.472Z</time>
      </trkpt>
      <trkpt lat="44.74676" lon="3.72759">
        <ele>1002.6370239258</ele>
        <time>2020-11-02T09:08:12.640Z</time>
      </trkpt>
      <trkpt lat="44.74675" lon="3.72755">
        <ele>1002.5530395508</ele>
        <time>2020-11-02T09:08:12.808Z</time>
      </trkpt>
      <trkpt lat="44.74669" lon="3.72746">
        <ele>1002.0491333008</ele>
        <time>2020-11-02T09:08:12.978Z</time>
      </trkpt>
      <trkpt lat="44.74648" lon="3.72734">
        <ele>1000.2854003906</ele>
        <time>2020-11-02T09:08:13.153Z</time>
      </trkpt>
      <trkpt lat="44.74624" lon="3.72727">
        <ele>998.26977539062</ele>
        <time>2020-11-02T09:08:13.332Z</time>
      </trkpt>
      <trkpt lat="44.74605" lon="3.72722">
        <ele>998</ele>
        <time>2020-11-02T09:08:13.515Z</time>
      </trkpt>
      <trkpt lat="44.7459" lon="3.72714">
        <ele>998</ele>
        <time>2020-11-02T09:08:13.702Z</time>
      </trkpt>
      <trkpt lat="44.74579" lon="3.72704">
        <ele>998</ele>
        <time>2020-11-02T09:08:13.891Z</time>
      </trkpt>
      <trkpt lat="44.74569" lon="3.72691">
        <ele>998</ele>
        <time>2020-11-02T09:08:14.083Z</time>
      </trkpt>
      <trkpt lat="44.74559" lon="3.72683">
        <ele>997.85186767578</ele>
        <time>2020-11-02T09:08:14.277Z</time>
      </trkpt>
      <trkpt lat="44.74554" lon="3.72682">
        <ele>997.81585693359</ele>
        <time>2020-11-02T09:08:14.472Z</time>
      </trkpt>
      <trkpt lat="44.74538" lon="3.7269">
        <ele>997.97210693359</ele>
        <time>2020-11-02T09:08:14.671Z</time>
      </trkpt>
      <trkpt lat="44.74515" lon="3.72705">
        <ele>1002.3626098633</ele>
        <time>2020-11-02T09:08:14.875Z</time>
      </trkpt>
      <trkpt lat="44.74498" lon="3.7272">
        <ele>1005.6500854492</ele>
        <time>2020-11-02T09:08:15.083Z</time>
      </trkpt>
      <trkpt lat="44.74488" lon="3.72732">
        <ele>1008.5994262695</ele>
        <time>2020-11-02T09:08:15.293Z</time>
      </trkpt>
      <trkpt lat="44.74462" lon="3.72762">
        <ele>1018.9177246094</ele>
        <time>2020-11-02T09:08:15.510Z</time>
      </trkpt>
      <trkpt lat="44.74451" lon="3.7277">
        <ele>1022.4918823242</ele>
        <time>2020-11-02T09:08:15.730Z</time>
      </trkpt>
      <trkpt lat="44.74445" lon="3.72768">
        <ele>1023.379699707</ele>
        <time>2020-11-02T09:08:15.951Z</time>
      </trkpt>
      <trkpt lat="44.74436" lon="3.72758">
        <ele>1024.2915039062</ele>
        <time>2020-11-02T09:08:16.174Z</time>
      </trkpt>
      <trkpt lat="44.74423" lon="3.72716">
        <ele>1023.3948364258</ele>
        <time>2020-11-02T09:08:16.404Z</time>
      </trkpt>
      <trkpt lat="44.74417" lon="3.72706">
        <ele>1023.7067871094</ele>
        <time>2020-11-02T09:08:16.635Z</time>
      </trkpt>
      <trkpt lat="44.74409" lon="3.72695">
        <ele>1024.3187255859</ele>
        <time>2020-11-02T09:08:16.869Z</time>
      </trkpt>
      <trkpt lat="44.74401" lon="3.7269">
        <ele>1025.4344482422</ele>
        <time>2020-11-02T09:08:17.104Z</time>
      </trkpt>
      <trkpt lat="44.74395" lon="3.72687">
        <ele>1026.3426513672</ele>
        <time>2020-11-02T09:08:17.341Z</time>
      </trkpt>
      <trkpt lat="44.74392" lon="3.72696">
        <ele>1027.6661376953</ele>
        <time>2020-11-02T09:08:17.579Z</time>
      </trkpt>
      <trkpt lat="44.74383" lon="3.72709">
        <ele>1030.2545166016</ele>
        <time>2020-11-02T09:08:17.820Z</time>
      </trkpt>
      <trkpt lat="44.74374" lon="3.72712">
        <ele>1031.9462890625</ele>
        <time>2020-11-02T09:08:18.063Z</time>
      </trkpt>
      <trkpt lat="44.74358" lon="3.7271">
        <ele>1033.443359375</ele>
        <time>2020-11-02T09:08:18.309Z</time>
      </trkpt>
      <trkpt lat="44.74346" lon="3.7271">
        <ele>1034.451171875</ele>
        <time>2020-11-02T09:08:18.557Z</time>
      </trkpt>
      <trkpt lat="44.74325" lon="3.72718">
        <ele>1036.6948242188</ele>
        <time>2020-11-02T09:08:18.810Z</time>
      </trkpt>
      <trkpt lat="44.74315" lon="3.72725">
        <ele>1036.3507080078</ele>
        <time>2020-11-02T09:08:19.065Z</time>
      </trkpt>
      <trkpt lat="44.74301" lon="3.7273">
        <ele>1034.8629150391</ele>
        <time>2020-11-02T09:08:19.323Z</time>
      </trkpt>
      <trkpt lat="44.7428" lon="3.72732">
        <ele>1034.1357421875</ele>
        <time>2020-11-02T09:08:19.585Z</time>
      </trkpt>
      <trkpt lat="44.74266" lon="3.72732">
        <ele>1034.9755859375</ele>
        <time>2020-11-02T09:08:19.850Z</time>
      </trkpt>
      <trkpt lat="44.74256" lon="3.72729">
        <ele>1035.8634033203</ele>
        <time>2020-11-02T09:08:20.117Z</time>
      </trkpt>
      <trkpt lat="44.74247" lon="3.72721">
        <ele>1037.1712646484</ele>
        <time>2020-11-02T09:08:20.386Z</time>
      </trkpt>
      <trkpt lat="44.74231" lon="3.72711">
        <ele>1039.0909423828</ele>
        <time>2020-11-02T09:08:20.658Z</time>
      </trkpt>
      <trkpt lat="44.74215" lon="3.72709">
        <ele>1038.7994384766</ele>
        <time>2020-11-02T09:08:20.934Z</time>
      </trkpt>
      <trkpt lat="44.7419" lon="3.72712">
        <ele>1039.1818847656</ele>
        <time>2020-11-02T09:08:21.215Z</time>
      </trkpt>
      <trkpt lat="44.74175" lon="3.72711">
        <ele>1041.3895263672</ele>
        <time>2020-11-02T09:08:21.499Z</time>
      </trkpt>
      <trkpt lat="44.74149" lon="3.7271">
        <ele>1045.0489501953</ele>
        <time>2020-11-02T09:08:21.788Z</time>
      </trkpt>
      <trkpt lat="44.74122" lon="3.72714">
        <ele>1045.8583984375</ele>
        <time>2020-11-02T09:08:22.082Z</time>
      </trkpt>
      <trkpt lat="44.74098" lon="3.72715">
        <ele>1051.0844726562</ele>
        <time>2020-11-02T09:08:22.381Z</time>
      </trkpt>
      <trkpt lat="44.74065" lon="3.72717">
        <ele>1058.3493652344</ele>
        <time>2020-11-02T09:08:22.687Z</time>
      </trkpt>
      <trkpt lat="44.74035" lon="3.72722">
        <ele>1063.2369384766</ele>
        <time>2020-11-02T09:08:22.999Z</time>
      </trkpt>
      <trkpt lat="44.73976" lon="3.72738">
        <ele>1072.5435791016</ele>
        <time>2020-11-02T09:08:23.323Z</time>
      </trkpt>
      <trkpt lat="44.73862" lon="3.72805">
        <ele>1084.4122314453</ele>
        <time>2020-11-02T09:08:23.671Z</time>
      </trkpt>
      <trkpt lat="44.73832" lon="3.72822">
        <ele>1087.7952880859</ele>
        <time>2020-11-02T09:08:24.026Z</time>
      </trkpt>
      <trkpt lat="44.73815" lon="3.72835">
        <ele>1091.1787109375</ele>
        <time>2020-11-02T09:08:24.385Z</time>
      </trkpt>
      <trkpt lat="44.73733" lon="3.72924">
        <ele>1092.130859375</ele>
        <time>2020-11-02T09:08:24.765Z</time>
      </trkpt>
      <trkpt lat="44.73712" lon="3.7294">
        <ele>1093.8843994141</ele>
        <time>2020-11-02T09:08:25.149Z</time>
      </trkpt>
      <trkpt lat="44.73682" lon="3.72956">
        <ele>1095.9979248047</ele>
        <time>2020-11-02T09:08:25.540Z</time>
      </trkpt>
      <trkpt lat="44.73668" lon="3.72967">
        <ele>1096.1658935547</ele>
        <time>2020-11-02T09:08:25.934Z</time>
      </trkpt>
      <trkpt lat="44.73663" lon="3.72976">
        <ele>1095.3740234375</ele>
        <time>2020-11-02T09:08:26.330Z</time>
      </trkpt>
      <trkpt lat="44.7366" lon="3.72998">
        <ele>1094.943359375</ele>
        <time>2020-11-02T09:08:26.729Z</time>
      </trkpt>
      <trkpt lat="44.73656" lon="3.73033">
        <ele>1094.6374511719</ele>
        <time>2020-11-02T09:08:27.133Z</time>
      </trkpt>
      <trkpt lat="44.73642" lon="3.73081">
        <ele>1094.3199462891</ele>
        <time>2020-11-02T09:08:27.544Z</time>
      </trkpt>
      <trkpt lat="44.73626" lon="3.73113">
        <ele>1095.1021728516</ele>
        <time>2020-11-02T09:08:27.961Z</time>
      </trkpt>
      <trkpt lat="44.73615" lon="3.73134">
        <ele>1093.8060302734</ele>
        <time>2020-11-02T09:08:28.381Z</time>
      </trkpt>
      <trkpt lat="44.73603" lon="3.73152">
        <ele>1093.6619873047</ele>
        <time>2020-11-02T09:08:28.805Z</time>
      </trkpt>
      <trkpt lat="44.73592" lon="3.73165">
        <ele>1093.8798828125</ele>
        <time>2020-11-02T09:08:29.232Z</time>
      </trkpt>
      <trkpt lat="44.73584" lon="3.73171">
        <ele>1094.3117675781</ele>
        <time>2020-11-02T09:08:29.661Z</time>
      </trkpt>
      <trkpt lat="44.73572" lon="3.73177">
        <ele>1095.4636230469</ele>
        <time>2020-11-02T09:08:30.092Z</time>
      </trkpt>
      <trkpt lat="44.73553" lon="3.73181">
        <ele>1098.2111816406</ele>
        <time>2020-11-02T09:08:30.527Z</time>
      </trkpt>
      <trkpt lat="44.73507" lon="3.73185">
        <ele>1104.6490478516</ele>
        <time>2020-11-02T09:08:30.971Z</time>
      </trkpt>
      <trkpt lat="44.73465" lon="3.73196">
        <ele>1108.2939453125</ele>
        <time>2020-11-02T09:08:31.424Z</time>
      </trkpt>
      <trkpt lat="44.73448" lon="3.73204">
        <ele>1109.5335693359</ele>
        <time>2020-11-02T09:08:31.880Z</time>
      </trkpt>
      <trkpt lat="44.73432" lon="3.73214">
        <ele>1108.8135986328</ele>
        <time>2020-11-02T09:08:32.340Z</time>
      </trkpt>
      <trkpt lat="44.73399" lon="3.73234">
        <ele>1107.8748779297</ele>
        <time>2020-11-02T09:08:32.807Z</time>
      </trkpt>
      <trkpt lat="44.73364" lon="3.73244">
        <ele>1108.6641845703</ele>
        <time>2020-11-02T09:08:33.281Z</time>
      </trkpt>
      <trkpt lat="44.73346" lon="3.73243">
        <ele>1108.3762207031</ele>
        <time>2020-11-02T09:08:33.759Z</time>
      </trkpt>
      <trkpt lat="44.73334" lon="3.73235">
        <ele>1109.1656494141</ele>
        <time>2020-11-02T09:08:34.240Z</time>
      </trkpt>
      <trkpt lat="44.73323" lon="3.73225">
        <ele>1110.26953125</ele>
        <time>2020-11-02T09:08:34.723Z</time>
      </trkpt>
      <trkpt lat="44.73298" lon="3.73194">
        <ele>1114.279296875</ele>
        <time>2020-11-02T09:08:35.213Z</time>
      </trkpt>
      <trkpt lat="44.73271" lon="3.73164">
        <ele>1116.8096923828</ele>
        <time>2020-11-02T09:08:35.710Z</time>
      </trkpt>
      <trkpt lat="44.73257" lon="3.73148">
        <ele>1117.8895263672</ele>
        <time>2020-11-02T09:08:36.210Z</time>
      </trkpt>
      <trkpt lat="44.73248" lon="3.73141">
        <ele>1118.189453125</ele>
        <time>2020-11-02T09:08:36.712Z</time>
      </trkpt>
      <trkpt lat="44.73242" lon="3.73138">
        <ele>1118.189453125</ele>
        <time>2020-11-02T09:08:37.216Z</time>
      </trkpt>
      <trkpt lat="44.73242" lon="3.73134">
        <ele>1118.6693115234</ele>
        <time>2020-11-02T09:08:37.720Z</time>
      </trkpt>
      <trkpt lat="44.73242" lon="3.73124">
        <ele>1119.869140625</ele>
        <time>2020-11-02T09:08:38.226Z</time>
      </trkpt>
      <trkpt lat="44.73258" lon="3.73115">
        <ele>1121.9088134766</ele>
        <time>2020-11-02T09:08:38.735Z</time>
      </trkpt>
      <trkpt lat="44.73276" lon="3.73108">
        <ele>1123.8284912109</ele>
        <time>2020-11-02T09:08:39.248Z</time>
      </trkpt>
      <trkpt lat="44.73298" lon="3.73097">
        <ele>1126.1627197266</ele>
        <time>2020-11-02T09:08:39.765Z</time>
      </trkpt>
      <trkpt lat="44.73303" lon="3.73082">
        <ele>1128.2623291016</ele>
        <time>2020-11-02T09:08:40.285Z</time>
      </trkpt>
      <trkpt lat="44.73302" lon="3.73073">
        <ele>1129.4261474609</ele>
        <time>2020-11-02T09:08:40.806Z</time>
      </trkpt>
      <trkpt lat="44.73296" lon="3.73066">
        <ele>1130.2060546875</ele>
        <time>2020-11-02T09:08:41.329Z</time>
      </trkpt>
      <trkpt lat="44.73287" lon="3.73068">
        <ele>1129.7427978516</ele>
        <time>2020-11-02T09:08:41.854Z</time>
      </trkpt>
      <trkpt lat="44.73285" lon="3.73067">
        <ele>1129.9708251953</ele>
        <time>2020-11-02T09:08:42.379Z</time>
      </trkpt>
      <trkpt lat="44.73266" lon="3.73061">
        <ele>1131.6745605469</ele>
        <time>2020-11-02T09:08:42.908Z</time>
      </trkpt>
      <trkpt lat="44.73246" lon="3.7305">
        <ele>1134.0860595703</ele>
        <time>2020-11-02T09:08:43.441Z</time>
      </trkpt>
      <trkpt lat="44.73201" lon="3.73016">
        <ele>1140.66796875</ele>
        <time>2020-11-02T09:08:43.984Z</time>
      </trkpt>
      <trkpt lat="44.73168" lon="3.72997">
        <ele>1143.8297119141</ele>
        <time>2020-11-02T09:08:44.535Z</time>
      </trkpt>
      <trkpt lat="44.73077" lon="3.72944">
        <ele>1151.7835693359</ele>
        <time>2020-11-02T09:08:45.105Z</time>
      </trkpt>
      <trkpt lat="44.73045" lon="3.72927">
        <ele>1154.0031738281</ele>
        <time>2020-11-02T09:08:45.682Z</time>
      </trkpt>
      <trkpt lat="44.73005" lon="3.72911">
        <ele>1156.1384277344</ele>
        <time>2020-11-02T09:08:46.267Z</time>
      </trkpt>
      <trkpt lat="44.72948" lon="3.72888">
        <ele>1159.2485351562</ele>
        <time>2020-11-02T09:08:46.864Z</time>
      </trkpt>
      <trkpt lat="44.72901" lon="3.72869">
        <ele>1164.34765625</ele>
        <time>2020-11-02T09:08:47.471Z</time>
      </trkpt>
      <trkpt lat="44.72854" lon="3.72864">
        <ele>1167.4935302734</ele>
        <time>2020-11-02T09:08:48.087Z</time>
      </trkpt>
      <trkpt lat="44.72831" lon="3.72863">
        <ele>1168.4293212891</ele>
        <time>2020-11-02T09:08:48.708Z</time>
      </trkpt>
      <trkpt lat="44.72817" lon="3.7286">
        <ele>1169.2572021484</ele>
        <time>2020-11-02T09:08:49.332Z</time>
      </trkpt>
      <trkpt lat="44.72807" lon="3.72854">
        <ele>1170.2650146484</ele>
        <time>2020-11-02T09:08:49.958Z</time>
      </trkpt>
      <trkpt lat="44.72788" lon="3.72838">
        <ele>1172.4869384766</ele>
        <time>2020-11-02T09:08:50.589Z</time>
      </trkpt>
      <trkpt lat="44.7276" lon="3.72815">
        <ele>1173.7479248047</ele>
        <time>2020-11-02T09:08:51.226Z</time>
      </trkpt>
      <trkpt lat="44.72729" lon="3.72788">
        <ele>1175.2237548828</ele>
        <time>2020-11-02T09:08:51.870Z</time>
      </trkpt>
      <trkpt lat="44.72698" lon="3.72759">
        <ele>1176.2683105469</ele>
        <time>2020-11-02T09:08:52.522Z</time>
      </trkpt>
      <trkpt lat="44.72683" lon="3.72736">
        <ele>1176.4842529297</ele>
        <time>2020-11-02T09:08:53.178Z</time>
      </trkpt>
      <trkpt lat="44.72669" lon="3.72697">
        <ele>1177.9479980469</ele>
        <time>2020-11-02T09:08:53.840Z</time>
      </trkpt>
      <trkpt lat="44.72649" lon="3.72646">
        <ele>1179.6997070312</ele>
        <time>2020-11-02T09:08:54.511Z</time>
      </trkpt>
      <trkpt lat="44.72629" lon="3.72589">
        <ele>1181.3985595703</ele>
        <time>2020-11-02T09:08:55.191Z</time>
      </trkpt>
      <trkpt lat="44.72608" lon="3.72533">
        <ele>1182.9005126953</ele>
        <time>2020-11-02T09:08:55.880Z</time>
      </trkpt>
      <trkpt lat="44.72593" lon="3.72487">
        <ele>1183.0952148438</ele>
        <time>2020-11-02T09:08:56.576Z</time>
      </trkpt>
      <trkpt lat="44.72582" lon="3.72458">
        <ele>1182.5192871094</ele>
        <time>2020-11-02T09:08:57.277Z</time>
      </trkpt>
      <trkpt lat="44.72568" lon="3.72416">
        <ele>1182.3530273438</ele>
        <time>2020-11-02T09:08:57.984Z</time>
      </trkpt>
      <trkpt lat="44.72548" lon="3.72363">
        <ele>1182.4838867188</ele>
        <time>2020-11-02T09:08:58.700Z</time>
      </trkpt>
      <trkpt lat="44.7253" lon="3.7231">
        <ele>1180.2554931641</ele>
        <time>2020-11-02T09:08:59.424Z</time>
      </trkpt>
      <trkpt lat="44.72514" lon="3.72272">
        <ele>1178.5037841797</ele>
        <time>2020-11-02T09:09:00.155Z</time>
      </trkpt>
      <trkpt lat="44.72499" lon="3.72227">
        <ele>1177.3753662109</ele>
        <time>2020-11-02T09:09:00.893Z</time>
      </trkpt>
      <trkpt lat="44.72476" lon="3.72165">
        <ele>1175.9975585938</ele>
        <time>2020-11-02T09:09:01.641Z</time>
      </trkpt>
      <trkpt lat="44.72458" lon="3.72119">
        <ele>1176.7653808594</ele>
        <time>2020-11-02T09:09:02.396Z</time>
      </trkpt>
      <trkpt lat="44.7244" lon="3.72074">
        <ele>1177.1910400391</ele>
        <time>2020-11-02T09:09:03.158Z</time>
      </trkpt>
      <trkpt lat="44.72432" lon="3.72052">
        <ele>1177.3590087891</ele>
        <time>2020-11-02T09:09:03.924Z</time>
      </trkpt>
      <trkpt lat="44.72422" lon="3.72027">
        <ele>1177.5390625</ele>
        <time>2020-11-02T09:09:04.694Z</time>
      </trkpt>
      <trkpt lat="44.72396" lon="3.71961">
        <ele>1176.576171875</ele>
        <time>2020-11-02T09:09:05.475Z</time>
      </trkpt>
      <trkpt lat="44.72382" lon="3.71914">
        <ele>1176.2758789062</ele>
        <time>2020-11-02T09:09:06.263Z</time>
      </trkpt>
      <trkpt lat="44.72363" lon="3.71863">
        <ele>1176.7098388672</ele>
        <time>2020-11-02T09:09:07.059Z</time>
      </trkpt>
      <trkpt lat="44.72354" lon="3.71824">
        <ele>1177.1968994141</ele>
        <time>2020-11-02T09:09:07.861Z</time>
      </trkpt>
      <trkpt lat="44.72348" lon="3.71783">
        <ele>1177.2689208984</ele>
        <time>2020-11-02T09:09:08.669Z</time>
      </trkpt>
      <trkpt lat="44.72323" lon="3.71707">
        <ele>1178.3282470703</ele>
        <time>2020-11-02T09:09:09.489Z</time>
      </trkpt>
      <trkpt lat="44.72294" lon="3.71641">
        <ele>1177.8142089844</ele>
        <time>2020-11-02T09:09:10.320Z</time>
      </trkpt>
      <trkpt lat="44.72282" lon="3.71612">
        <ele>1177.2015380859</ele>
        <time>2020-11-02T09:09:11.156Z</time>
      </trkpt>
      <trkpt lat="44.72272" lon="3.71581">
        <ele>1176.4575195312</ele>
        <time>2020-11-02T09:09:11.997Z</time>
      </trkpt>
      <trkpt lat="44.72264" lon="3.7152">
        <ele>1173.8210449219</ele>
        <time>2020-11-02T09:09:12.847Z</time>
      </trkpt>
      <trkpt lat="44.72261" lon="3.71485">
        <ele>1172.7795410156</ele>
        <time>2020-11-02T09:09:13.702Z</time>
      </trkpt>
      <trkpt lat="44.72265" lon="3.71454">
        <ele>1171.9396972656</ele>
        <time>2020-11-02T09:09:14.561Z</time>
      </trkpt>
      <trkpt lat="44.72266" lon="3.71431">
        <ele>1171.5764160156</ele>
        <time>2020-11-02T09:09:15.423Z</time>
      </trkpt>
      <trkpt lat="44.72264" lon="3.71415">
        <ele>1171.8162841797</ele>
        <time>2020-11-02T09:09:16.288Z</time>
      </trkpt>
      <trkpt lat="44.72249" lon="3.71349">
        <ele>1171.3382568359</ele>
        <time>2020-11-02T09:09:17.163Z</time>
      </trkpt>
      <trkpt lat="44.72229" lon="3.71275">
        <ele>1174.1635742188</ele>
        <time>2020-11-02T09:09:18.049Z</time>
      </trkpt>
      <trkpt lat="44.72223" lon="3.71247">
        <ele>1174.2587890625</ele>
        <time>2020-11-02T09:09:18.939Z</time>
      </trkpt>
      <trkpt lat="44.72229" lon="3.71243">
        <ele>1174.0668945312</ele>
        <time>2020-11-02T09:09:19.830Z</time>
      </trkpt>
      <trkpt lat="44.72229" lon="3.71242">
        <ele>1174.0714111328</ele>
        <time>2020-11-02T09:09:20.721Z</time>
      </trkpt>
      <trkpt lat="44.72229" lon="3.71243">
        <ele>1174.0668945312</ele>
        <time>2020-11-02T09:09:21.613Z</time>
      </trkpt>
      <trkpt lat="44.72249" lon="3.71254">
        <ele>1173.7188720703</ele>
        <time>2020-11-02T09:09:22.509Z</time>
      </trkpt>
      <trkpt lat="44.72262" lon="3.71264">
        <ele>1173.5269775391</ele>
        <time>2020-11-02T09:09:23.408Z</time>
      </trkpt>
      <trkpt lat="44.72282" lon="3.71281">
        <ele>1172.6038818359</ele>
        <time>2020-11-02T09:09:24.312Z</time>
      </trkpt>
      <trkpt lat="44.72305" lon="3.71291">
        <ele>1170.9265136719</ele>
        <time>2020-11-02T09:09:25.220Z</time>
      </trkpt>
      <trkpt lat="44.72362" lon="3.71237">
        <ele>1172.6873779297</ele>
        <time>2020-11-02T09:09:26.142Z</time>
      </trkpt>
      <trkpt lat="44.72434" lon="3.7116">
        <ele>1167.9638671875</ele>
        <time>2020-11-02T09:09:27.082Z</time>
      </trkpt>
      <trkpt lat="44.72451" lon="3.71144">
        <ele>1165.4923095703</ele>
        <time>2020-11-02T09:09:28.026Z</time>
      </trkpt>
      <trkpt lat="44.72472" lon="3.71129">
        <ele>1163.4189453125</ele>
        <time>2020-11-02T09:09:28.975Z</time>
      </trkpt>
      <trkpt lat="44.72516" lon="3.711">
        <ele>1152.3896484375</ele>
        <time>2020-11-02T09:09:29.934Z</time>
      </trkpt>
      <trkpt lat="44.72532" lon="3.71093">
        <ele>1148.6632080078</ele>
        <time>2020-11-02T09:09:30.896Z</time>
      </trkpt>
      <trkpt lat="44.72544" lon="3.71093">
        <ele>1147.4560546875</ele>
        <time>2020-11-02T09:09:31.861Z</time>
      </trkpt>
      <trkpt lat="44.72562" lon="3.71096">
        <ele>1147.1320800781</ele>
        <time>2020-11-02T09:09:32.829Z</time>
      </trkpt>
      <trkpt lat="44.72569" lon="3.71094">
        <ele>1146.8920898438</ele>
        <time>2020-11-02T09:09:33.799Z</time>
      </trkpt>
      <trkpt lat="44.72576" lon="3.71092">
        <ele>1146.6520996094</ele>
        <time>2020-11-02T09:09:34.770Z</time>
      </trkpt>
      <trkpt lat="44.72581" lon="3.71087">
        <ele>1146.3521728516</ele>
        <time>2020-11-02T09:09:35.742Z</time>
      </trkpt>
      <trkpt lat="44.72594" lon="3.71064">
        <ele>1144.5854492188</ele>
        <time>2020-11-02T09:09:36.718Z</time>
      </trkpt>
      <trkpt lat="44.72606" lon="3.71047">
        <ele>1142.2938232422</ele>
        <time>2020-11-02T09:09:37.698Z</time>
      </trkpt>
      <trkpt lat="44.72624" lon="3.71034">
        <ele>1140.1188964844</ele>
        <time>2020-11-02T09:09:38.682Z</time>
      </trkpt>
      <trkpt lat="44.72641" lon="3.71025">
        <ele>1139.3475341797</ele>
        <time>2020-11-02T09:09:39.670Z</time>
      </trkpt>
      <trkpt lat="44.72668" lon="3.71015">
        <ele>1138.9379882812</ele>
        <time>2020-11-02T09:09:40.663Z</time>
      </trkpt>
      <trkpt lat="44.72684" lon="3.71007">
        <ele>1138.8419189453</ele>
        <time>2020-11-02T09:09:41.660Z</time>
      </trkpt>
      <trkpt lat="44.72694" lon="3.71001">
        <ele>1138.5451660156</ele>
        <time>2020-11-02T09:09:42.659Z</time>
      </trkpt>
      <trkpt lat="44.72706" lon="3.71">
        <ele>1138.1684570312</ele>
        <time>2020-11-02T09:09:43.660Z</time>
      </trkpt>
      <trkpt lat="44.7273" lon="3.71008">
        <ele>1137.3045654297</ele>
        <time>2020-11-02T09:09:44.666Z</time>
      </trkpt>
      <trkpt lat="44.72749" lon="3.71021">
        <ele>1136.9104003906</ele>
        <time>2020-11-02T09:09:45.676Z</time>
      </trkpt>
      <trkpt lat="44.72765" lon="3.71033">
        <ele>1137.2943115234</ele>
        <time>2020-11-02T09:09:46.690Z</time>
      </trkpt>
      <trkpt lat="44.72783" lon="3.71039">
        <ele>1137.0063476562</ele>
        <time>2020-11-02T09:09:47.708Z</time>
      </trkpt>
      <trkpt lat="44.72812" lon="3.71043">
        <ele>1136.3452148438</ele>
        <time>2020-11-02T09:09:48.731Z</time>
      </trkpt>
      <trkpt lat="44.7282" lon="3.71045">
        <ele>1136.3931884766</ele>
        <time>2020-11-02T09:09:49.756Z</time>
      </trkpt>
      <trkpt lat="44.72831" lon="3.71054">
        <ele>1136.9091796875</ele>
        <time>2020-11-02T09:09:50.784Z</time>
      </trkpt>
      <trkpt lat="44.72854" lon="3.7107">
        <ele>1137.7850341797</ele>
        <time>2020-11-02T09:09:51.817Z</time>
      </trkpt>
      <trkpt lat="44.72869" lon="3.71075">
        <ele>1137.9649658203</ele>
        <time>2020-11-02T09:09:52.853Z</time>
      </trkpt>
      <trkpt lat="44.72905" lon="3.71078">
        <ele>1138.9908447266</ele>
        <time>2020-11-02T09:09:53.896Z</time>
      </trkpt>
      <trkpt lat="44.72944" lon="3.71078">
        <ele>1139.9267578125</ele>
        <time>2020-11-02T09:09:54.947Z</time>
      </trkpt>
      <trkpt lat="44.72962" lon="3.71075">
        <ele>1140.1427001953</ele>
        <time>2020-11-02T09:09:56.001Z</time>
      </trkpt>
      <trkpt lat="44.72982" lon="3.71067">
        <ele>1140.0467529297</ele>
        <time>2020-11-02T09:09:57.060Z</time>
      </trkpt>
      <trkpt lat="44.72996" lon="3.71056">
        <ele>1139.3630371094</ele>
        <time>2020-11-02T09:09:58.122Z</time>
      </trkpt>
      <trkpt lat="44.73016" lon="3.71042">
        <ele>1137.611328125</ele>
        <time>2020-11-02T09:09:59.188Z</time>
      </trkpt>
      <trkpt lat="44.73049" lon="3.71028">
        <ele>1136.5521240234</ele>
        <time>2020-11-02T09:10:00.261Z</time>
      </trkpt>
      <trkpt lat="44.73062" lon="3.71028">
        <ele>1137.0201416016</ele>
        <time>2020-11-02T09:10:01.337Z</time>
      </trkpt>
      <trkpt lat="44.731" lon="3.71032">
        <ele>1138.9637451172</ele>
        <time>2020-11-02T09:10:02.420Z</time>
      </trkpt>
      <trkpt lat="44.73132" lon="3.71039">
        <ele>1141.1234130859</ele>
        <time>2020-11-02T09:10:03.510Z</time>
      </trkpt>
      <trkpt lat="44.73185" lon="3.71056">
        <ele>1144.1044921875</ele>
        <time>2020-11-02T09:10:04.611Z</time>
      </trkpt>
      <trkpt lat="44.73237" lon="3.71074">
        <ele>1145.3468017578</ele>
        <time>2020-11-02T09:10:05.722Z</time>
      </trkpt>
      <trkpt lat="44.73272" lon="3.71089">
        <ele>1146.1267089844</ele>
        <time>2020-11-02T09:10:06.841Z</time>
      </trkpt>
      <trkpt lat="44.73288" lon="3.71099">
        <ele>1146.6773681641</ele>
        <time>2020-11-02T09:10:07.963Z</time>
      </trkpt>
      <trkpt lat="44.73316" lon="3.71133">
        <ele>1144.6427001953</ele>
        <time>2020-11-02T09:10:09.093Z</time>
      </trkpt>
      <trkpt lat="44.73342" lon="3.71166">
        <ele>1142.4470214844</ele>
        <time>2020-11-02T09:10:10.230Z</time>
      </trkpt>
      <trkpt lat="44.7336" lon="3.71186">
        <ele>1140.5513916016</ele>
        <time>2020-11-02T09:10:11.371Z</time>
      </trkpt>
      <trkpt lat="44.73377" lon="3.71205">
        <ele>1137.0350341797</ele>
        <time>2020-11-02T09:10:12.517Z</time>
      </trkpt>
      <trkpt lat="44.73389" lon="3.71226">
        <ele>1134.7674560547</ele>
        <time>2020-11-02T09:10:13.666Z</time>
      </trkpt>
      <trkpt lat="44.73398" lon="3.7126">
        <ele>1133.7236328125</ele>
        <time>2020-11-02T09:10:14.821Z</time>
      </trkpt>
      <trkpt lat="44.73404" lon="3.71297">
        <ele>1131.2939453125</ele>
        <time>2020-11-02T09:10:15.981Z</time>
      </trkpt>
      <trkpt lat="44.73402" lon="3.7131">
        <ele>1130.7724609375</ele>
        <time>2020-11-02T09:10:17.143Z</time>
      </trkpt>
      <trkpt lat="44.73392" lon="3.71333">
        <ele>1130.6044921875</ele>
        <time>2020-11-02T09:10:18.309Z</time>
      </trkpt>
      <trkpt lat="44.73384" lon="3.71353">
        <ele>1130.3165283203</ele>
        <time>2020-11-02T09:10:19.478Z</time>
      </trkpt>
      <trkpt lat="44.73376" lon="3.71375">
        <ele>1129.5822753906</ele>
        <time>2020-11-02T09:10:20.651Z</time>
      </trkpt>
      <trkpt lat="44.73375" lon="3.71376">
        <ele>1129.6182861328</ele>
        <time>2020-11-02T09:10:21.824Z</time>
      </trkpt>
      <trkpt lat="44.73363" lon="3.71409">
        <ele>1127.8034667969</ele>
        <time>2020-11-02T09:10:23.002Z</time>
      </trkpt>
      <trkpt lat="44.73354" lon="3.71445">
        <ele>1125.998046875</ele>
        <time>2020-11-02T09:10:24.186Z</time>
      </trkpt>
      <trkpt lat="44.7335" lon="3.71474">
        <ele>1124.7742919922</ele>
        <time>2020-11-02T09:10:25.374Z</time>
      </trkpt>
      <trkpt lat="44.73352" lon="3.71487">
        <ele>1123.4064941406</ele>
        <time>2020-11-02T09:10:26.564Z</time>
      </trkpt>
      <trkpt lat="44.73357" lon="3.71491">
        <ele>1122.0386962891</ele>
        <time>2020-11-02T09:10:27.755Z</time>
      </trkpt>
      <trkpt lat="44.73365" lon="3.71492">
        <ele>1120.2390136719</ele>
        <time>2020-11-02T09:10:28.947Z</time>
      </trkpt>
      <trkpt lat="44.73376" lon="3.71489">
        <ele>1118.6646728516</ele>
        <time>2020-11-02T09:10:30.142Z</time>
      </trkpt>
      <trkpt lat="44.73388" lon="3.71482">
        <ele>1117.8728027344</ele>
        <time>2020-11-02T09:10:31.339Z</time>
      </trkpt>
      <trkpt lat="44.73406" lon="3.71467">
        <ele>1116.7532958984</ele>
        <time>2020-11-02T09:10:32.540Z</time>
      </trkpt>
      <trkpt lat="44.73419" lon="3.7146">
        <ele>1114.8935546875</ele>
        <time>2020-11-02T09:10:33.744Z</time>
      </trkpt>
      <trkpt lat="44.7345" lon="3.71451">
        <ele>1110.2742919922</ele>
        <time>2020-11-02T09:10:34.955Z</time>
      </trkpt>
      <trkpt lat="44.73477" lon="3.71448">
        <ele>1109.0257568359</ele>
        <time>2020-11-02T09:10:36.171Z</time>
      </trkpt>
      <trkpt lat="44.73501" lon="3.71448">
        <ele>1107.8739013672</ele>
        <time>2020-11-02T09:10:37.392Z</time>
      </trkpt>
      <trkpt lat="44.73512" lon="3.71449">
        <ele>1107.3580322266</ele>
        <time>2020-11-02T09:10:38.615Z</time>
      </trkpt>
      <trkpt lat="44.73527" lon="3.71447">
        <ele>1106.6141357422</ele>
        <time>2020-11-02T09:10:39.841Z</time>
      </trkpt>
      <trkpt lat="44.73545" lon="3.71438">
        <ele>1106.4512939453</ele>
        <time>2020-11-02T09:10:41.071Z</time>
      </trkpt>
      <trkpt lat="44.73554" lon="3.71437">
        <ele>1107.1951904297</ele>
        <time>2020-11-02T09:10:42.303Z</time>
      </trkpt>
      <trkpt lat="44.73586" lon="3.71444">
        <ele>1108.8269042969</ele>
        <time>2020-11-02T09:10:43.541Z</time>
      </trkpt>
      <trkpt lat="44.73607" lon="3.71448">
        <ele>1109.9547119141</ele>
        <time>2020-11-02T09:10:44.783Z</time>
      </trkpt>
      <trkpt lat="44.73622" lon="3.71447">
        <ele>1111.0147705078</ele>
        <time>2020-11-02T09:10:46.028Z</time>
      </trkpt>
      <trkpt lat="44.73656" lon="3.71442">
        <ele>1112.5402832031</ele>
        <time>2020-11-02T09:10:47.280Z</time>
      </trkpt>
      <trkpt lat="44.73712" lon="3.71447">
        <ele>1113.2578125</ele>
        <time>2020-11-02T09:10:48.543Z</time>
      </trkpt>
      <trkpt lat="44.73741" lon="3.71454">
        <ele>1112.1630859375</ele>
        <time>2020-11-02T09:10:49.812Z</time>
      </trkpt>
      <trkpt lat="44.73766" lon="3.71457">
        <ele>1111.8872070312</ele>
        <time>2020-11-02T09:10:51.086Z</time>
      </trkpt>
      <trkpt lat="44.73777" lon="3.71456">
        <ele>1112.2110595703</ele>
        <time>2020-11-02T09:10:52.363Z</time>
      </trkpt>
      <trkpt lat="44.73781" lon="3.71455">
        <ele>1112.4510498047</ele>
        <time>2020-11-02T09:10:53.640Z</time>
      </trkpt>
      <trkpt lat="44.73784" lon="3.7145">
        <ele>1113.4468994141</ele>
        <time>2020-11-02T09:10:54.918Z</time>
      </trkpt>
      <trkpt lat="44.73796" lon="3.71432">
        <ele>1117.263671875</ele>
        <time>2020-11-02T09:10:56.200Z</time>
      </trkpt>
      <trkpt lat="44.73836" lon="3.71381">
        <ele>1129.5621337891</ele>
        <time>2020-11-02T09:10:57.493Z</time>
      </trkpt>
      <trkpt lat="44.73874" lon="3.71337">
        <ele>1132.1491699219</ele>
        <time>2020-11-02T09:10:58.795Z</time>
      </trkpt>
      <trkpt lat="44.73904" lon="3.713">
        <ele>1131.5281982422</ele>
        <time>2020-11-02T09:11:00.105Z</time>
      </trkpt>
      <trkpt lat="44.73925" lon="3.71264">
        <ele>1128.7927246094</ele>
        <time>2020-11-02T09:11:01.422Z</time>
      </trkpt>
      <trkpt lat="44.73938" lon="3.71238">
        <ele>1127.4273681641</ele>
        <time>2020-11-02T09:11:02.744Z</time>
      </trkpt>
      <trkpt lat="44.7394" lon="3.7122">
        <ele>1127.9312744141</ele>
        <time>2020-11-02T09:11:04.068Z</time>
      </trkpt>
      <trkpt lat="44.73936" lon="3.71196">
        <ele>1129.8029785156</ele>
        <time>2020-11-02T09:11:05.396Z</time>
      </trkpt>
      <trkpt lat="44.73923" lon="3.71165">
        <ele>1133.3679199219</ele>
        <time>2020-11-02T09:11:06.729Z</time>
      </trkpt>
      <trkpt lat="44.7392" lon="3.7115">
        <ele>1134.5163574219</ele>
        <time>2020-11-02T09:11:08.064Z</time>
      </trkpt>
      <trkpt lat="44.73921" lon="3.71133">
        <ele>1135.3801269531</ele>
        <time>2020-11-02T09:11:09.402Z</time>
      </trkpt>
      <trkpt lat="44.73924" lon="3.71124">
        <ele>1135.4521484375</ele>
        <time>2020-11-02T09:11:10.741Z</time>
      </trkpt>
      <trkpt lat="44.73929" lon="3.71119">
        <ele>1134.9722900391</ele>
        <time>2020-11-02T09:11:12.081Z</time>
      </trkpt>
      <trkpt lat="44.73948" lon="3.7111">
        <ele>1132.5485839844</ele>
        <time>2020-11-02T09:11:13.425Z</time>
      </trkpt>
      <trkpt lat="44.73973" lon="3.71108">
        <ele>1132.4685058594</ele>
        <time>2020-11-02T09:11:14.774Z</time>
      </trkpt>
      <trkpt lat="44.73986" lon="3.71099">
        <ele>1133.6394042969</ele>
        <time>2020-11-02T09:11:16.126Z</time>
      </trkpt>
      <trkpt lat="44.73989" lon="3.71094">
        <ele>1134.2872314453</ele>
        <time>2020-11-02T09:11:17.479Z</time>
      </trkpt>
      <trkpt lat="44.7399" lon="3.71082">
        <ele>1135.6190185547</ele>
        <time>2020-11-02T09:11:18.834Z</time>
      </trkpt>
      <trkpt lat="44.73987" lon="3.71071">
        <ele>1136.6988525391</ele>
        <time>2020-11-02T09:11:20.190Z</time>
      </trkpt>
      <trkpt lat="44.73979" lon="3.71049">
        <ele>1138.7864990234</ele>
        <time>2020-11-02T09:11:21.550Z</time>
      </trkpt>
      <trkpt lat="44.73967" lon="3.71032">
        <ele>1140.1484375</ele>
        <time>2020-11-02T09:11:22.913Z</time>
      </trkpt>
      <trkpt lat="44.73942" lon="3.70991">
        <ele>1146.3732910156</ele>
        <time>2020-11-02T09:11:24.284Z</time>
      </trkpt>
      <trkpt lat="44.73922" lon="3.70962">
        <ele>1152.9721679688</ele>
        <time>2020-11-02T09:11:25.661Z</time>
      </trkpt>
      <trkpt lat="44.73912" lon="3.70952">
        <ele>1155.7316894531</ele>
        <time>2020-11-02T09:11:27.040Z</time>
      </trkpt>
      <trkpt lat="44.73907" lon="3.70945">
        <ele>1157.3514404297</ele>
        <time>2020-11-02T09:11:28.421Z</time>
      </trkpt>
      <trkpt lat="44.73907" lon="3.7094">
        <ele>1157.9514160156</ele>
        <time>2020-11-02T09:11:29.802Z</time>
      </trkpt>
      <trkpt lat="44.73907" lon="3.70908">
        <ele>1160.7531738281</ele>
        <time>2020-11-02T09:11:31.188Z</time>
      </trkpt>
      <trkpt lat="44.739" lon="3.70899">
        <ele>1162.6009521484</ele>
        <time>2020-11-02T09:11:32.576Z</time>
      </trkpt>
      <trkpt lat="44.73892" lon="3.70898">
        <ele>1163.9327392578</ele>
        <time>2020-11-02T09:11:33.965Z</time>
      </trkpt>
      <trkpt lat="44.73885" lon="3.70894">
        <ele>1165.3604736328</ele>
        <time>2020-11-02T09:11:35.356Z</time>
      </trkpt>
      <trkpt lat="44.73884" lon="3.70887">
        <ele>1166.1043701172</ele>
        <time>2020-11-02T09:11:36.748Z</time>
      </trkpt>
      <trkpt lat="44.73894" lon="3.70844">
        <ele>1170.2822265625</ele>
        <time>2020-11-02T09:11:38.146Z</time>
      </trkpt>
      <trkpt lat="44.73893" lon="3.70834">
        <ele>1171.0621337891</ele>
        <time>2020-11-02T09:11:39.546Z</time>
      </trkpt>
      <trkpt lat="44.73895" lon="3.70818">
        <ele>1172.0939941406</ele>
        <time>2020-11-02T09:11:40.948Z</time>
      </trkpt>
      <trkpt lat="44.73913" lon="3.70769">
        <ele>1176.0112304688</ele>
        <time>2020-11-02T09:11:42.358Z</time>
      </trkpt>
      <trkpt lat="44.73924" lon="3.70749">
        <ele>1176.2271728516</ele>
        <time>2020-11-02T09:11:43.772Z</time>
      </trkpt>
      <trkpt lat="44.73926" lon="3.70739">
        <ele>1176.4565429688</ele>
        <time>2020-11-02T09:11:45.187Z</time>
      </trkpt>
      <trkpt lat="44.73926" lon="3.70718">
        <ele>1177.2124023438</ele>
        <time>2020-11-02T09:11:46.605Z</time>
      </trkpt>
      <trkpt lat="44.73921" lon="3.70688">
        <ele>1178.3522949219</ele>
        <time>2020-11-02T09:11:48.027Z</time>
      </trkpt>
      <trkpt lat="44.73904" lon="3.70636">
        <ele>1181.609375</ele>
        <time>2020-11-02T09:11:49.458Z</time>
      </trkpt>
      <trkpt lat="44.73898" lon="3.70606">
        <ele>1182.3293457031</ele>
        <time>2020-11-02T09:11:50.893Z</time>
      </trkpt>
      <trkpt lat="44.7389" lon="3.70582">
        <ele>1182.8399658203</ele>
        <time>2020-11-02T09:11:52.332Z</time>
      </trkpt>
      <trkpt lat="44.73874" lon="3.70556">
        <ele>1183.7998046875</ele>
        <time>2020-11-02T09:11:53.776Z</time>
      </trkpt>
      <trkpt lat="44.7387" lon="3.70539">
        <ele>1184.0318603516</ele>
        <time>2020-11-02T09:11:55.222Z</time>
      </trkpt>
      <trkpt lat="44.73873" lon="3.70515">
        <ele>1184.1320800781</ele>
        <time>2020-11-02T09:11:56.672Z</time>
      </trkpt>
      <trkpt lat="44.73889" lon="3.70441">
        <ele>1187.2534179688</ele>
        <time>2020-11-02T09:11:58.133Z</time>
      </trkpt>
      <trkpt lat="44.73889" lon="3.70424">
        <ele>1188.3243408203</ele>
        <time>2020-11-02T09:11:59.596Z</time>
      </trkpt>
      <trkpt lat="44.73884" lon="3.70404">
        <ele>1189.6440429688</ele>
        <time>2020-11-02T09:12:01.062Z</time>
      </trkpt>
      <trkpt lat="44.7388" lon="3.70366">
        <ele>1192.0196533203</ele>
        <time>2020-11-02T09:12:02.534Z</time>
      </trkpt>
      <trkpt lat="44.73873" lon="3.70339">
        <ele>1192.9719238281</ele>
        <time>2020-11-02T09:12:04.010Z</time>
      </trkpt>
      <trkpt lat="44.73871" lon="3.70306">
        <ele>1192.9959716797</ele>
        <time>2020-11-02T09:12:05.491Z</time>
      </trkpt>
      <trkpt lat="44.73877" lon="3.70274">
        <ele>1192.9525146484</ele>
        <time>2020-11-02T09:12:06.976Z</time>
      </trkpt>
      <trkpt lat="44.73887" lon="3.70239">
        <ele>1193.7449951172</ele>
        <time>2020-11-02T09:12:08.467Z</time>
      </trkpt>
      <trkpt lat="44.73888" lon="3.7023">
        <ele>1193.9609375</ele>
        <time>2020-11-02T09:12:09.959Z</time>
      </trkpt>
      <trkpt lat="44.73886" lon="3.70196">
        <ele>1194.7043457031</ele>
        <time>2020-11-02T09:12:11.456Z</time>
      </trkpt>
      <trkpt lat="44.73872" lon="3.70119">
        <ele>1196.6085205078</ele>
        <time>2020-11-02T09:12:12.964Z</time>
      </trkpt>
      <trkpt lat="44.73858" lon="3.70058">
        <ele>1197</ele>
        <time>2020-11-02T09:12:14.481Z</time>
      </trkpt>
      <trkpt lat="44.73858" lon="3.70044">
        <ele>1197</ele>
        <time>2020-11-02T09:12:16.000Z</time>
      </trkpt>
      <trkpt lat="44.73855" lon="3.70016">
        <ele>1197.1441650391</ele>
        <time>2020-11-02T09:12:17.523Z</time>
      </trkpt>
      <trkpt lat="44.73846" lon="3.69974">
        <ele>1198.3997802734</ele>
        <time>2020-11-02T09:12:19.053Z</time>
      </trkpt>
      <trkpt lat="44.73838" lon="3.69943">
        <ele>1199.2397460938</ele>
        <time>2020-11-02T09:12:20.587Z</time>
      </trkpt>
      <trkpt lat="44.73836" lon="3.6992">
        <ele>1200.0155029297</ele>
        <time>2020-11-02T09:12:22.125Z</time>
      </trkpt>
      <trkpt lat="44.73826" lon="3.69894">
        <ele>1201.0712890625</ele>
        <time>2020-11-02T09:12:23.667Z</time>
      </trkpt>
      <trkpt lat="44.7382" lon="3.69874">
        <ele>1201.8631591797</ele>
        <time>2020-11-02T09:12:25.212Z</time>
      </trkpt>
      <trkpt lat="44.73816" lon="3.69846">
        <ele>1202.6558837891</ele>
        <time>2020-11-02T09:12:26.761Z</time>
      </trkpt>
      <trkpt lat="44.73816" lon="3.69824">
        <ele>1202.6558837891</ele>
        <time>2020-11-02T09:12:28.313Z</time>
      </trkpt>
      <trkpt lat="44.73815" lon="3.69806">
        <ele>1202.6678466797</ele>
        <time>2020-11-02T09:12:29.868Z</time>
      </trkpt>
      <trkpt lat="44.73807" lon="3.69765">
        <ele>1204.2999267578</ele>
        <time>2020-11-02T09:12:31.429Z</time>
      </trkpt>
      <trkpt lat="44.73791" lon="3.69703">
        <ele>1204.8278808594</ele>
        <time>2020-11-02T09:12:32.999Z</time>
      </trkpt>
      <trkpt lat="44.73783" lon="3.69637">
        <ele>1206.0352783203</ele>
        <time>2020-11-02T09:12:34.579Z</time>
      </trkpt>
      <trkpt lat="44.73779" lon="3.69561">
        <ele>1208.3218994141</ele>
        <time>2020-11-02T09:12:36.170Z</time>
      </trkpt>
      <trkpt lat="44.73779" lon="3.69493">
        <ele>1210.7694091797</ele>
        <time>2020-11-02T09:12:37.770Z</time>
      </trkpt>
      <trkpt lat="44.73783" lon="3.69471">
        <ele>1211.6573486328</ele>
        <time>2020-11-02T09:12:39.373Z</time>
      </trkpt>
      <trkpt lat="44.73792" lon="3.69443">
        <ele>1213.3306884766</ele>
        <time>2020-11-02T09:12:40.981Z</time>
      </trkpt>
      <trkpt lat="44.73798" lon="3.6938">
        <ele>1213.7691650391</ele>
        <time>2020-11-02T09:12:42.598Z</time>
      </trkpt>
      <trkpt lat="44.738" lon="3.69349">
        <ele>1213.8553466797</ele>
        <time>2020-11-02T09:12:44.219Z</time>
      </trkpt>
      <trkpt lat="44.738" lon="3.69349">
        <ele>1213.8624267578</ele>
        <time>2020-11-02T09:12:45.840Z</time>
      </trkpt>
      <trkpt lat="44.73796" lon="3.69302">
        <ele>1213.0104980469</ele>
        <time>2020-11-02T09:12:47.468Z</time>
      </trkpt>
      <trkpt lat="44.738" lon="3.69219">
        <ele>1213.5218505859</ele>
        <time>2020-11-02T09:12:49.108Z</time>
      </trkpt>
      <trkpt lat="44.73802" lon="3.69156">
        <ele>1215.0369873047</ele>
        <time>2020-11-02T09:12:50.757Z</time>
      </trkpt>
      <trkpt lat="44.73806" lon="3.69055">
        <ele>1217.7254638672</ele>
        <time>2020-11-02T09:12:52.420Z</time>
      </trkpt>
      <trkpt lat="44.7382" lon="3.69001">
        <ele>1218.7945556641</ele>
        <time>2020-11-02T09:12:54.092Z</time>
      </trkpt>
      <trkpt lat="44.73823" lon="3.68974">
        <ele>1219.2625732422</ele>
        <time>2020-11-02T09:12:55.768Z</time>
      </trkpt>
      <trkpt lat="44.73821" lon="3.68958">
        <ele>1219.06640625</ele>
        <time>2020-11-02T09:12:57.446Z</time>
      </trkpt>
      <trkpt lat="44.73816" lon="3.68864">
        <ele>1223.0369873047</ele>
        <time>2020-11-02T09:12:59.137Z</time>
      </trkpt>
      <trkpt lat="44.73814" lon="3.68846">
        <ele>1224.4117431641</ele>
        <time>2020-11-02T09:13:00.831Z</time>
      </trkpt>
      <trkpt lat="44.73809" lon="3.68826">
        <ele>1226.4514160156</ele>
        <time>2020-11-02T09:13:02.528Z</time>
      </trkpt>
      <trkpt lat="44.73803" lon="3.6881">
        <ele>1228.03515625</ele>
        <time>2020-11-02T09:13:04.227Z</time>
      </trkpt>
      <trkpt lat="44.73817" lon="3.68815">
        <ele>1227.8634033203</ele>
        <time>2020-11-02T09:13:05.929Z</time>
      </trkpt>
      <trkpt lat="44.73818" lon="3.68815">
        <ele>1227.8551025391</ele>
        <time>2020-11-02T09:13:07.632Z</time>
      </trkpt>
      <trkpt lat="44.73854" lon="3.68828">
        <ele>1227.1116943359</ele>
        <time>2020-11-02T09:13:09.342Z</time>
      </trkpt>
      <trkpt lat="44.73893" lon="3.68841">
        <ele>1226.5559082031</ele>
        <time>2020-11-02T09:13:11.060Z</time>
      </trkpt>
      <trkpt lat="44.74016" lon="3.68884">
        <ele>1224.7653808594</ele>
        <time>2020-11-02T09:13:12.803Z</time>
      </trkpt>
      <trkpt lat="44.74031" lon="3.68887">
        <ele>1224.1175537109</ele>
        <time>2020-11-02T09:13:14.549Z</time>
      </trkpt>
      <trkpt lat="44.74051" lon="3.6889">
        <ele>1223.720703125</ele>
        <time>2020-11-02T09:13:16.299Z</time>
      </trkpt>
      <trkpt lat="44.74083" lon="3.68888">
        <ele>1223.0299072266</ele>
        <time>2020-11-02T09:13:18.056Z</time>
      </trkpt>
      <trkpt lat="44.741" lon="3.68908">
        <ele>1223.3779296875</ele>
        <time>2020-11-02T09:13:19.817Z</time>
      </trkpt>
      <trkpt lat="44.74113" lon="3.68916">
        <ele>1223.2939453125</ele>
        <time>2020-11-02T09:13:21.581Z</time>
      </trkpt>
      <trkpt lat="44.74133" lon="3.68926">
        <ele>1223.2015380859</ele>
        <time>2020-11-02T09:13:23.349Z</time>
      </trkpt>
      <trkpt lat="44.7416" lon="3.68943">
        <ele>1223.3695068359</ele>
        <time>2020-11-02T09:13:25.123Z</time>
      </trkpt>
      <trkpt lat="44.74183" lon="3.68963">
        <ele>1223.77734375</ele>
        <time>2020-11-02T09:13:26.903Z</time>
      </trkpt>
      <trkpt lat="44.74197" lon="3.68979">
        <ele>1224.2093505859</ele>
        <time>2020-11-02T09:13:28.686Z</time>
      </trkpt>
      <trkpt lat="44.74208" lon="3.69004">
        <ele>1224.9556884766</ele>
        <time>2020-11-02T09:13:30.474Z</time>
      </trkpt>
      <trkpt lat="44.74222" lon="3.69042">
        <ele>1225.1254882812</ele>
        <time>2020-11-02T09:13:32.268Z</time>
      </trkpt>
      <trkpt lat="44.74242" lon="3.69079">
        <ele>1224.7415771484</ele>
        <time>2020-11-02T09:13:34.068Z</time>
      </trkpt>
      <trkpt lat="44.74266" lon="3.69117">
        <ele>1223.6422119141</ele>
        <time>2020-11-02T09:13:35.875Z</time>
      </trkpt>
      <trkpt lat="44.74272" lon="3.69131">
        <ele>1223.3303222656</ele>
        <time>2020-11-02T09:13:37.685Z</time>
      </trkpt>
      <trkpt lat="44.74283" lon="3.69172">
        <ele>1223.1263427734</ele>
        <time>2020-11-02T09:13:39.501Z</time>
      </trkpt>
      <trkpt lat="44.74287" lon="3.69191">
        <ele>1223.0335693359</ele>
        <time>2020-11-02T09:13:41.320Z</time>
      </trkpt>
      <trkpt lat="44.74295" lon="3.69224">
        <ele>1222.9088134766</ele>
        <time>2020-11-02T09:13:43.144Z</time>
      </trkpt>
      <trkpt lat="44.74295" lon="3.69264">
        <ele>1222.9088134766</ele>
        <time>2020-11-02T09:13:44.974Z</time>
      </trkpt>
      <trkpt lat="44.74295" lon="3.69304">
        <ele>1221.4071044922</ele>
        <time>2020-11-02T09:13:46.809Z</time>
      </trkpt>
      <trkpt lat="44.74302" lon="3.69367">
        <ele>1218.3077392578</ele>
        <time>2020-11-02T09:13:48.653Z</time>
      </trkpt>
      <trkpt lat="44.74303" lon="3.69412">
        <ele>1216.57421875</ele>
        <time>2020-11-02T09:13:50.504Z</time>
      </trkpt>
      <trkpt lat="44.74302" lon="3.69444">
        <ele>1215.5955810547</ele>
        <time>2020-11-02T09:13:52.359Z</time>
      </trkpt>
      <trkpt lat="44.74304" lon="3.69508">
        <ele>1209.9450683594</ele>
        <time>2020-11-02T09:13:54.223Z</time>
      </trkpt>
      <trkpt lat="44.74307" lon="3.69563">
        <ele>1207.7775878906</ele>
        <time>2020-11-02T09:13:56.095Z</time>
      </trkpt>
      <trkpt lat="44.7431" lon="3.69591">
        <ele>1207.3337402344</ele>
        <time>2020-11-02T09:13:57.971Z</time>
      </trkpt>
      <trkpt lat="44.74314" lon="3.69603">
        <ele>1207.0457763672</ele>
        <time>2020-11-02T09:13:59.849Z</time>
      </trkpt>
      <trkpt lat="44.74306" lon="3.6962">
        <ele>1206.7282714844</ele>
        <time>2020-11-02T09:14:01.730Z</time>
      </trkpt>
      <trkpt lat="44.7429" lon="3.69653">
        <ele>1207.2473144531</ele>
        <time>2020-11-02T09:14:03.617Z</time>
      </trkpt>
      <trkpt lat="44.74286" lon="3.69674">
        <ele>1207.2185058594</ele>
        <time>2020-11-02T09:14:05.507Z</time>
      </trkpt>
      <trkpt lat="44.74291" lon="3.69718">
        <ele>1206.0308837891</ele>
        <time>2020-11-02T09:14:07.403Z</time>
      </trkpt>
      <trkpt lat="44.74297" lon="3.69813">
        <ele>1203.7369384766</ele>
        <time>2020-11-02T09:14:09.313Z</time>
      </trkpt>
      <trkpt lat="44.74298" lon="3.69825">
        <ele>1203.4249267578</ele>
        <time>2020-11-02T09:14:11.225Z</time>
      </trkpt>
      <trkpt lat="44.74302" lon="3.69848">
        <ele>1202.7770996094</ele>
        <time>2020-11-02T09:14:13.140Z</time>
      </trkpt>
      <trkpt lat="44.74319" lon="3.69881">
        <ele>1202.2416992188</ele>
        <time>2020-11-02T09:14:15.061Z</time>
      </trkpt>
      <trkpt lat="44.7433" lon="3.69907">
        <ele>1201.9777832031</ele>
        <time>2020-11-02T09:14:16.986Z</time>
      </trkpt>
      <trkpt lat="44.74354" lon="3.69976">
        <ele>1200.4577636719</ele>
        <time>2020-11-02T09:14:18.922Z</time>
      </trkpt>
      <trkpt lat="44.74371" lon="3.70043">
        <ele>1199.2728271484</ele>
        <time>2020-11-02T09:14:20.868Z</time>
      </trkpt>
      <trkpt lat="44.74375" lon="3.70075">
        <ele>1199.6087646484</ele>
        <time>2020-11-02T09:14:22.819Z</time>
      </trkpt>
      <trkpt lat="44.74376" lon="3.70095">
        <ele>1199.8367919922</ele>
        <time>2020-11-02T09:14:24.773Z</time>
      </trkpt>
      <trkpt lat="44.74385" lon="3.70157">
        <ele>1197.5559082031</ele>
        <time>2020-11-02T09:14:26.736Z</time>
      </trkpt>
      <trkpt lat="44.74394" lon="3.70206">
        <ele>1195.4682617188</ele>
        <time>2020-11-02T09:14:28.706Z</time>
      </trkpt>
      <trkpt lat="44.744" lon="3.70228">
        <ele>1194.0268554688</ele>
        <time>2020-11-02T09:14:30.679Z</time>
      </trkpt>
      <trkpt lat="44.74409" lon="3.70246">
        <ele>1192.7310791016</ele>
        <time>2020-11-02T09:14:32.655Z</time>
      </trkpt>
      <trkpt lat="44.74421" lon="3.70271">
        <ele>1190.8741455078</ele>
        <time>2020-11-02T09:14:34.636Z</time>
      </trkpt>
      <trkpt lat="44.74432" lon="3.70288">
        <ele>1188.6304931641</ele>
        <time>2020-11-02T09:14:36.620Z</time>
      </trkpt>
      <trkpt lat="44.74439" lon="3.70312">
        <ele>1185.4630126953</ele>
        <time>2020-11-02T09:14:38.608Z</time>
      </trkpt>
      <trkpt lat="44.74446" lon="3.70342">
        <ele>1181.5036621094</ele>
        <time>2020-11-02T09:14:40.600Z</time>
      </trkpt>
      <trkpt lat="44.74468" lon="3.70403">
        <ele>1175.0493164062</ele>
        <time>2020-11-02T09:14:42.602Z</time>
      </trkpt>
      <trkpt lat="44.7447" lon="3.70415">
        <ele>1173.7535400391</ele>
        <time>2020-11-02T09:14:44.606Z</time>
      </trkpt>
      <trkpt lat="44.74472" lon="3.70439">
        <ele>1171.0451660156</ele>
        <time>2020-11-02T09:14:46.613Z</time>
      </trkpt>
      <trkpt lat="44.74469" lon="3.70463">
        <ele>1168.5100097656</ele>
        <time>2020-11-02T09:14:48.624Z</time>
      </trkpt>
      <trkpt lat="44.74457" lon="3.70503">
        <ele>1164.5747070312</ele>
        <time>2020-11-02T09:14:50.641Z</time>
      </trkpt>
      <trkpt lat="44.74446" lon="3.70547">
        <ele>1163.6165771484</ele>
        <time>2020-11-02T09:14:52.664Z</time>
      </trkpt>
      <trkpt lat="44.74448" lon="3.70564">
        <ele>1162.8967285156</ele>
        <time>2020-11-02T09:14:54.690Z</time>
      </trkpt>
      <trkpt lat="44.74452" lon="3.70573">
        <ele>1162.0568847656</ele>
        <time>2020-11-02T09:14:56.717Z</time>
      </trkpt>
      <trkpt lat="44.7446" lon="3.70581">
        <ele>1161.1131591797</ele>
        <time>2020-11-02T09:14:58.746Z</time>
      </trkpt>
      <trkpt lat="44.74485" lon="3.70603">
        <ele>1158.7855224609</ele>
        <time>2020-11-02T09:15:00.781Z</time>
      </trkpt>
      <trkpt lat="44.74513" lon="3.70648">
        <ele>1153.5513916016</ele>
        <time>2020-11-02T09:15:02.825Z</time>
      </trkpt>
      <trkpt lat="44.74525" lon="3.70662">
        <ele>1151.6796875</ele>
        <time>2020-11-02T09:15:04.872Z</time>
      </trkpt>
      <trkpt lat="44.7454" lon="3.70676">
        <ele>1149.7762451172</ele>
        <time>2020-11-02T09:15:06.922Z</time>
      </trkpt>
      <trkpt lat="44.74555" lon="3.70694">
        <ele>1148.220703125</ele>
        <time>2020-11-02T09:15:08.976Z</time>
      </trkpt>
      <trkpt lat="44.74567" lon="3.70712">
        <ele>1146.2769775391</ele>
        <time>2020-11-02T09:15:11.034Z</time>
      </trkpt>
      <trkpt lat="44.74575" lon="3.7073">
        <ele>1144.7406005859</ele>
        <time>2020-11-02T09:15:13.095Z</time>
      </trkpt>
      <trkpt lat="44.7458" lon="3.70754">
        <ele>1143.5168457031</ele>
        <time>2020-11-02T09:15:15.160Z</time>
      </trkpt>
      <trkpt lat="44.74588" lon="3.70782">
        <ele>1141.505859375</ele>
        <time>2020-11-02T09:15:17.229Z</time>
      </trkpt>
      <trkpt lat="44.74597" lon="3.70798">
        <ele>1139.7061767578</ele>
        <time>2020-11-02T09:15:19.301Z</time>
      </trkpt>
      <trkpt lat="44.74612" lon="3.70813">
        <ele>1137.5465087891</ele>
        <time>2020-11-02T09:15:21.376Z</time>
      </trkpt>
      <trkpt lat="44.74621" lon="3.70827">
        <ele>1135.9111328125</ele>
        <time>2020-11-02T09:15:23.454Z</time>
      </trkpt>
      <trkpt lat="44.74629" lon="3.70871">
        <ele>1133.1458740234</ele>
        <time>2020-11-02T09:15:25.539Z</time>
      </trkpt>
      <trkpt lat="44.7464" lon="3.70909">
        <ele>1131.1301269531</ele>
        <time>2020-11-02T09:15:27.629Z</time>
      </trkpt>
      <trkpt lat="44.74646" lon="3.70945">
        <ele>1128.9183349609</ele>
        <time>2020-11-02T09:15:29.725Z</time>
      </trkpt>
      <trkpt lat="44.74651" lon="3.70971">
        <ele>1126.9973144531</ele>
        <time>2020-11-02T09:15:31.825Z</time>
      </trkpt>
      <trkpt lat="44.74658" lon="3.70985">
        <ele>1126.2414550781</ele>
        <time>2020-11-02T09:15:33.927Z</time>
      </trkpt>
      <trkpt lat="44.74668" lon="3.70999">
        <ele>1125.4495849609</ele>
        <time>2020-11-02T09:15:36.032Z</time>
      </trkpt>
      <trkpt lat="44.74682" lon="3.71015">
        <ele>1124.5137939453</ele>
        <time>2020-11-02T09:15:38.140Z</time>
      </trkpt>
      <trkpt lat="44.74712" lon="3.71046">
        <ele>1122.8687744141</ele>
        <time>2020-11-02T09:15:40.256Z</time>
      </trkpt>
      <trkpt lat="44.74724" lon="3.71063">
        <ele>1123.0246582031</ele>
        <time>2020-11-02T09:15:42.375Z</time>
      </trkpt>
      <trkpt lat="44.7473" lon="3.71079">
        <ele>1122.4727783203</ele>
        <time>2020-11-02T09:15:44.497Z</time>
      </trkpt>
      <trkpt lat="44.74739" lon="3.71109">
        <ele>1120.9437255859</ele>
        <time>2020-11-02T09:15:46.623Z</time>
      </trkpt>
      <trkpt lat="44.7475" lon="3.71146">
        <ele>1117.9561767578</ele>
        <time>2020-11-02T09:15:48.755Z</time>
      </trkpt>
      <trkpt lat="44.74757" lon="3.71164">
        <ele>1116.8117675781</ele>
        <time>2020-11-02T09:15:50.890Z</time>
      </trkpt>
      <trkpt lat="44.74786" lon="3.71215">
        <ele>1114.1090087891</ele>
        <time>2020-11-02T09:15:53.034Z</time>
      </trkpt>
      <trkpt lat="44.7481" lon="3.71256">
        <ele>1112.6580810547</ele>
        <time>2020-11-02T09:15:55.186Z</time>
      </trkpt>
      <trkpt lat="44.74819" lon="3.71272">
        <ele>1112.1654052734</ele>
        <time>2020-11-02T09:15:57.341Z</time>
      </trkpt>
      <trkpt lat="44.74827" lon="3.7129">
        <ele>1112.2133789062</ele>
        <time>2020-11-02T09:15:59.499Z</time>
      </trkpt>
      <trkpt lat="44.74835" lon="3.71302">
        <ele>1112.693359375</ele>
        <time>2020-11-02T09:16:01.659Z</time>
      </trkpt>
      <trkpt lat="44.74841" lon="3.71319">
        <ele>1112.4774169922</ele>
        <time>2020-11-02T09:16:03.822Z</time>
      </trkpt>
      <trkpt lat="44.74853" lon="3.71373">
        <ele>1112.0051269531</ele>
        <time>2020-11-02T09:16:05.993Z</time>
      </trkpt>
      <trkpt lat="44.74862" lon="3.71408">
        <ele>1113.5168457031</ele>
        <time>2020-11-02T09:16:08.169Z</time>
      </trkpt>
      <trkpt lat="44.74864" lon="3.71427">
        <ele>1113.8527832031</ele>
        <time>2020-11-02T09:16:10.348Z</time>
      </trkpt>
      <trkpt lat="44.74864" lon="3.71437">
        <ele>1113.7708740234</ele>
        <time>2020-11-02T09:16:12.528Z</time>
      </trkpt>
      <trkpt lat="44.74871" lon="3.71461">
        <ele>1115.0163574219</ele>
        <time>2020-11-02T09:16:14.712Z</time>
      </trkpt>
      <trkpt lat="44.74876" lon="3.71478">
        <ele>1115.4962158203</ele>
        <time>2020-11-02T09:16:16.899Z</time>
      </trkpt>
      <trkpt lat="44.7487" lon="3.71483">
        <ele>1114.8507080078</ele>
        <time>2020-11-02T09:16:19.087Z</time>
      </trkpt>
      <trkpt lat="44.74865" lon="3.71496">
        <ele>1113.9508056641</ele>
        <time>2020-11-02T09:16:21.277Z</time>
      </trkpt>
      <trkpt lat="44.74864" lon="3.71518">
        <ele>1113.7708740234</ele>
        <time>2020-11-02T09:16:23.470Z</time>
      </trkpt>
      <trkpt lat="44.74865" lon="3.7156">
        <ele>1111.0895996094</ele>
        <time>2020-11-02T09:16:25.669Z</time>
      </trkpt>
      <trkpt lat="44.74868" lon="3.71584">
        <ele>1109.9018554688</ele>
        <time>2020-11-02T09:16:27.872Z</time>
      </trkpt>
      <trkpt lat="44.74873" lon="3.716">
        <ele>1109.4155273438</ele>
        <time>2020-11-02T09:16:30.077Z</time>
      </trkpt>
      <trkpt lat="44.74889" lon="3.71645">
        <ele>1106.8918457031</ele>
        <time>2020-11-02T09:16:32.290Z</time>
      </trkpt>
      <trkpt lat="44.74894" lon="3.71661">
        <ele>1105.9799804688</ele>
        <time>2020-11-02T09:16:34.505Z</time>
      </trkpt>
      <trkpt lat="44.74896" lon="3.71685">
        <ele>1104.3482666016</ele>
        <time>2020-11-02T09:16:36.724Z</time>
      </trkpt>
      <trkpt lat="44.74893" lon="3.71697">
        <ele>1103.4610595703</ele>
        <time>2020-11-02T09:16:38.944Z</time>
      </trkpt>
      <trkpt lat="44.74884" lon="3.71725">
        <ele>1102.2449951172</ele>
        <time>2020-11-02T09:16:41.169Z</time>
      </trkpt>
      <trkpt lat="44.74879" lon="3.71735">
        <ele>1101.9461669922</ele>
        <time>2020-11-02T09:16:43.395Z</time>
      </trkpt>
      <trkpt lat="44.74878" lon="3.71734">
        <ele>1101.95703125</ele>
        <time>2020-11-02T09:16:45.622Z</time>
      </trkpt>
      <trkpt lat="44.74866" lon="3.71763">
        <ele>1100.4217529297</ele>
        <time>2020-11-02T09:16:47.853Z</time>
      </trkpt>
      <trkpt lat="44.74852" lon="3.71788">
        <ele>1095.8714599609</ele>
        <time>2020-11-02T09:16:50.089Z</time>
      </trkpt>
      <trkpt lat="44.74846" lon="3.71804">
        <ele>1093.6158447266</ele>
        <time>2020-11-02T09:16:52.328Z</time>
      </trkpt>
      <trkpt lat="44.74848" lon="3.7182">
        <ele>1093.087890625</ele>
        <time>2020-11-02T09:16:54.569Z</time>
      </trkpt>
      <trkpt lat="44.74857" lon="3.71832">
        <ele>1094.3116455078</ele>
        <time>2020-11-02T09:16:56.812Z</time>
      </trkpt>
      <trkpt lat="44.74868" lon="3.71832">
        <ele>1096.6872558594</ele>
        <time>2020-11-02T09:16:59.058Z</time>
      </trkpt>
      <trkpt lat="44.74882" lon="3.71823">
        <ele>1097.3022460938</ele>
        <time>2020-11-02T09:17:01.307Z</time>
      </trkpt>
      <trkpt lat="44.749" lon="3.71807">
        <ele>1097.3981933594</ele>
        <time>2020-11-02T09:17:03.560Z</time>
      </trkpt>
      <trkpt lat="44.74932" lon="3.71785">
        <ele>1099.9698486328</ele>
        <time>2020-11-02T09:17:05.820Z</time>
      </trkpt>
      <trkpt lat="44.74949" lon="3.71777">
        <ele>1101.1335449219</ele>
        <time>2020-11-02T09:17:08.084Z</time>
      </trkpt>
      <trkpt lat="44.74965" lon="3.71766">
        <ele>1100.5695800781</ele>
        <time>2020-11-02T09:17:10.351Z</time>
      </trkpt>
      <trkpt lat="44.74998" lon="3.71746">
        <ele>1096.6223144531</ele>
        <time>2020-11-02T09:17:12.625Z</time>
      </trkpt>
      <trkpt lat="44.75034" lon="3.7173">
        <ele>1094.1730957031</ele>
        <time>2020-11-02T09:17:14.907Z</time>
      </trkpt>
      <trkpt lat="44.75061" lon="3.71715">
        <ele>1091.9729003906</ele>
        <time>2020-11-02T09:17:17.195Z</time>
      </trkpt>
      <trkpt lat="44.75138" lon="3.71677">
        <ele>1089.3323974609</ele>
        <time>2020-11-02T09:17:19.499Z</time>
      </trkpt>
      <trkpt lat="44.75188" lon="3.7165">
        <ele>1089.5635986328</ele>
        <time>2020-11-02T09:17:21.814Z</time>
      </trkpt>
      <trkpt lat="44.75207" lon="3.71636">
        <ele>1090.0137939453</ele>
        <time>2020-11-02T09:17:24.133Z</time>
      </trkpt>
      <trkpt lat="44.75245" lon="3.71602">
        <ele>1088.4448242188</ele>
        <time>2020-11-02T09:17:26.461Z</time>
      </trkpt>
      <trkpt lat="44.75272" lon="3.71576">
        <ele>1085.7092285156</ele>
        <time>2020-11-02T09:17:28.796Z</time>
      </trkpt>
      <trkpt lat="44.75289" lon="3.7156">
        <ele>1083.8819580078</ele>
        <time>2020-11-02T09:17:31.135Z</time>
      </trkpt>
      <trkpt lat="44.75309" lon="3.71536">
        <ele>1081.8182373047</ele>
        <time>2020-11-02T09:17:33.479Z</time>
      </trkpt>
      <trkpt lat="44.75334" lon="3.7151">
        <ele>1078.2937011719</ele>
        <time>2020-11-02T09:17:35.829Z</time>
      </trkpt>
      <trkpt lat="44.75372" lon="3.71493">
        <ele>1073.1478271484</ele>
        <time>2020-11-02T09:17:38.187Z</time>
      </trkpt>
      <trkpt lat="44.75391" lon="3.71482">
        <ele>1074.515625</ele>
        <time>2020-11-02T09:17:40.549Z</time>
      </trkpt>
      <trkpt lat="44.75413" lon="3.71466">
        <ele>1076.0637207031</ele>
        <time>2020-11-02T09:17:42.916Z</time>
      </trkpt>
      <trkpt lat="44.75418" lon="3.71463">
        <ele>1075.9677734375</ele>
        <time>2020-11-02T09:17:45.284Z</time>
      </trkpt>
      <trkpt lat="44.75428" lon="3.71461">
        <ele>1075.1038818359</ele>
        <time>2020-11-02T09:17:47.654Z</time>
      </trkpt>
      <trkpt lat="44.75438" lon="3.71464">
        <ele>1073.4001464844</ele>
        <time>2020-11-02T09:17:50.026Z</time>
      </trkpt>
      <trkpt lat="44.75444" lon="3.7146">
        <ele>1073.3521728516</ele>
        <time>2020-11-02T09:17:52.400Z</time>
      </trkpt>
      <trkpt lat="44.75438" lon="3.71464">
        <ele>1073.4001464844</ele>
        <time>2020-11-02T09:17:54.775Z</time>
      </trkpt>
      <trkpt lat="44.75424" lon="3.71483">
        <ele>1071.8884277344</ele>
        <time>2020-11-02T09:17:57.154Z</time>
      </trkpt>
      <trkpt lat="44.7541" lon="3.715">
        <ele>1069.2724609375</ele>
        <time>2020-11-02T09:17:59.537Z</time>
      </trkpt>
      <trkpt lat="44.75381" lon="3.71526">
        <ele>1065.2230224609</ele>
        <time>2020-11-02T09:18:01.927Z</time>
      </trkpt>
      <trkpt lat="44.75351" lon="3.71553">
        <ele>1067.7806396484</ele>
        <time>2020-11-02T09:18:04.324Z</time>
      </trkpt>
      <trkpt lat="44.75341" lon="3.71565">
        <ele>1068.8123779297</ele>
        <time>2020-11-02T09:18:06.723Z</time>
      </trkpt>
      <trkpt lat="44.75326" lon="3.71596">
        <ele>1068.4885253906</ele>
        <time>2020-11-02T09:18:09.128Z</time>
      </trkpt>
      <trkpt lat="44.753" lon="3.71644">
        <ele>1066.9256591797</ele>
        <time>2020-11-02T09:18:11.541Z</time>
      </trkpt>
      <trkpt lat="44.75282" lon="3.71673">
        <ele>1065.1807861328</ele>
        <time>2020-11-02T09:18:13.960Z</time>
      </trkpt>
      <trkpt lat="44.7527" lon="3.71688">
        <ele>1064.5919189453</ele>
        <time>2020-11-02T09:18:16.382Z</time>
      </trkpt>
      <trkpt lat="44.75252" lon="3.71718">
        <ele>1062.7202148438</ele>
        <time>2020-11-02T09:18:18.809Z</time>
      </trkpt>
      <trkpt lat="44.75246" lon="3.71734">
        <ele>1060.8812255859</ele>
        <time>2020-11-02T09:18:21.239Z</time>
      </trkpt>
      <trkpt lat="44.75243" lon="3.71754">
        <ele>1057.4138183594</ele>
        <time>2020-11-02T09:18:23.672Z</time>
      </trkpt>
      <trkpt lat="44.7524" lon="3.71783">
        <ele>1053.9396972656</ele>
        <time>2020-11-02T09:18:26.109Z</time>
      </trkpt>
      <trkpt lat="44.7524" lon="3.71809">
        <ele>1052.3449707031</ele>
        <time>2020-11-02T09:18:28.550Z</time>
      </trkpt>
      <trkpt lat="44.7524" lon="3.71841">
        <ele>1050.0413818359</ele>
        <time>2020-11-02T09:18:30.995Z</time>
      </trkpt>
      <trkpt lat="44.75242" lon="3.71859">
        <ele>1048.9399414062</ele>
        <time>2020-11-02T09:18:33.443Z</time>
      </trkpt>
      <trkpt lat="44.75248" lon="3.71865">
        <ele>1048.0041503906</ele>
        <time>2020-11-02T09:18:35.892Z</time>
      </trkpt>
      <trkpt lat="44.75259" lon="3.71881">
        <ele>1046.4683837891</ele>
        <time>2020-11-02T09:18:38.345Z</time>
      </trkpt>
      <trkpt lat="44.75266" lon="3.71891">
        <ele>1045.4846191406</ele>
        <time>2020-11-02T09:18:40.800Z</time>
      </trkpt>
      <trkpt lat="44.75276" lon="3.71916">
        <ele>1044.4647216797</ele>
        <time>2020-11-02T09:18:43.259Z</time>
      </trkpt>
      <trkpt lat="44.75277" lon="3.71924">
        <ele>1044.5606689453</ele>
        <time>2020-11-02T09:18:45.719Z</time>
      </trkpt>
      <trkpt lat="44.7528" lon="3.71924">
        <ele>1043.9848632812</ele>
        <time>2020-11-02T09:18:48.180Z</time>
      </trkpt>
      <trkpt lat="44.75286" lon="3.71927">
        <ele>1042.9410400391</ele>
        <time>2020-11-02T09:18:50.642Z</time>
      </trkpt>
      <trkpt lat="44.75294" lon="3.71952">
        <ele>1041.7905273438</ele>
        <time>2020-11-02T09:18:53.108Z</time>
      </trkpt>
      <trkpt lat="44.75299" lon="3.71958">
        <ele>1040.7827148438</ele>
        <time>2020-11-02T09:18:55.575Z</time>
      </trkpt>
      <trkpt lat="44.75304" lon="3.71959">
        <ele>1039.71484375</ele>
        <time>2020-11-02T09:18:58.043Z</time>
      </trkpt>
      <trkpt lat="44.75314" lon="3.71977">
        <ele>1037.7712402344</ele>
        <time>2020-11-02T09:19:00.514Z</time>
      </trkpt>
      <trkpt lat="44.75322" lon="3.71989">
        <ele>1036.1875</ele>
        <time>2020-11-02T09:19:02.988Z</time>
      </trkpt>
      <trkpt lat="44.75327" lon="3.72002">
        <ele>1035.263671875</ele>
        <time>2020-11-02T09:19:05.464Z</time>
      </trkpt>
      <trkpt lat="44.7533" lon="3.72019">
        <ele>1034.8197021484</ele>
        <time>2020-11-02T09:19:07.942Z</time>
      </trkpt>
      <trkpt lat="44.75332" lon="3.72042">
        <ele>1034.6636962891</ele>
        <time>2020-11-02T09:19:10.424Z</time>
      </trkpt>
      <trkpt lat="44.75328" lon="3.72073">
        <ele>1035.166015625</ele>
        <time>2020-11-02T09:19:12.910Z</time>
      </trkpt>
      <trkpt lat="44.75316" lon="3.72103">
        <ele>1035.5979003906</ele>
        <time>2020-11-02T09:19:15.401Z</time>
      </trkpt>
      <trkpt lat="44.75308" lon="3.72116">
        <ele>1035.0397949219</ele>
        <time>2020-11-02T09:19:17.894Z</time>
      </trkpt>
      <trkpt lat="44.75314" lon="3.72136">
        <ele>1031.2244873047</ele>
        <time>2020-11-02T09:19:20.390Z</time>
      </trkpt>
      <trkpt lat="44.75314" lon="3.72166">
        <ele>1026.9051513672</ele>
        <time>2020-11-02T09:19:22.891Z</time>
      </trkpt>
      <trkpt lat="44.75286" lon="3.72198">
        <ele>1025.1989746094</ele>
        <time>2020-11-02T09:19:25.399Z</time>
      </trkpt>
      <trkpt lat="44.75272" lon="3.72213">
        <ele>1023.0753173828</ele>
        <time>2020-11-02T09:19:27.910Z</time>
      </trkpt>
      <trkpt lat="44.75266" lon="3.72223">
        <ele>1021.1796264648</ele>
        <time>2020-11-02T09:19:30.423Z</time>
      </trkpt>
      <trkpt lat="44.75245" lon="3.72246">
        <ele>1019.3835449219</ele>
        <time>2020-11-02T09:19:32.942Z</time>
      </trkpt>
      <trkpt lat="44.75224" lon="3.72265">
        <ele>1020.5233764648</ele>
        <time>2020-11-02T09:19:35.466Z</time>
      </trkpt>
      <trkpt lat="44.7522" lon="3.72272">
        <ele>1019.9747924805</ele>
        <time>2020-11-02T09:19:37.991Z</time>
      </trkpt>
      <trkpt lat="44.752" lon="3.72301">
        <ele>1017.8295898438</ele>
        <time>2020-11-02T09:19:40.522Z</time>
      </trkpt>
      <trkpt lat="44.75179" lon="3.72337">
        <ele>1014.8768920898</ele>
        <time>2020-11-02T09:19:43.059Z</time>
      </trkpt>
      <trkpt lat="44.75172" lon="3.72355">
        <ele>1015.6098632812</ele>
        <time>2020-11-02T09:19:45.599Z</time>
      </trkpt>
      <trkpt lat="44.75168" lon="3.72371">
        <ele>1014.2660522461</ele>
        <time>2020-11-02T09:19:48.142Z</time>
      </trkpt>
      <trkpt lat="44.75167" lon="3.72397">
        <ele>1010.2347412109</ele>
        <time>2020-11-02T09:19:50.688Z</time>
      </trkpt>
      <trkpt lat="44.75164" lon="3.7242">
        <ele>1009.3229980469</ele>
        <time>2020-11-02T09:19:53.238Z</time>
      </trkpt>
      <trkpt lat="44.75164" lon="3.72419">
        <ele>1009.5032958984</ele>
        <time>2020-11-02T09:19:55.788Z</time>
      </trkpt>
      <trkpt lat="44.75162" lon="3.72436">
        <ele>1008.8190917969</ele>
        <time>2020-11-02T09:19:58.340Z</time>
      </trkpt>
      <trkpt lat="44.75156" lon="3.7248">
        <ele>1008.7669067383</ele>
        <time>2020-11-02T09:20:00.899Z</time>
      </trkpt>
      <trkpt lat="44.75155" lon="3.72494">
        <ele>1008.5269165039</ele>
        <time>2020-11-02T09:20:03.460Z</time>
      </trkpt>
      <trkpt lat="44.75155" lon="3.72507">
        <ele>1007.9030151367</ele>
        <time>2020-11-02T09:20:06.022Z</time>
      </trkpt>
      <trkpt lat="44.75163" lon="3.72512">
        <ele>1004.2076416016</ele>
        <time>2020-11-02T09:20:08.586Z</time>
      </trkpt>
      <trkpt lat="44.75174" lon="3.72514">
        <ele>999.36047363281</ele>
        <time>2020-11-02T09:20:11.152Z</time>
      </trkpt>
      <trkpt lat="44.75198" lon="3.72516">
        <ele>988.89819335938</ele>
        <time>2020-11-02T09:20:13.723Z</time>
      </trkpt>
      <trkpt lat="44.75216" lon="3.72518">
        <ele>986.00390625</ele>
        <time>2020-11-02T09:20:16.298Z</time>
      </trkpt>
      <trkpt lat="44.75224" lon="3.72537">
        <ele>986.16046142578</ele>
        <time>2020-11-02T09:20:18.876Z</time>
      </trkpt>
      <trkpt lat="44.75231" lon="3.72549">
        <ele>986.29974365234</ele>
        <time>2020-11-02T09:20:21.456Z</time>
      </trkpt>
      <trkpt lat="44.7525" lon="3.72582">
        <ele>986.35974121094</ele>
        <time>2020-11-02T09:20:24.042Z</time>
      </trkpt>
      <trkpt lat="44.75258" lon="3.72592">
        <ele>986.43176269531</ele>
        <time>2020-11-02T09:20:26.630Z</time>
      </trkpt>
      <trkpt lat="44.75268" lon="3.7259">
        <ele>986.69567871094</ele>
        <time>2020-11-02T09:20:29.220Z</time>
      </trkpt>
      <trkpt lat="44.75273" lon="3.72593">
        <ele>986.77966308594</ele>
        <time>2020-11-02T09:20:31.811Z</time>
      </trkpt>
      <trkpt lat="44.75275" lon="3.72599">
        <ele>986.75567626953</ele>
        <time>2020-11-02T09:20:34.403Z</time>
      </trkpt>
      <trkpt lat="44.75277" lon="3.72615">
        <ele>986.88122558594</ele>
        <time>2020-11-02T09:20:36.998Z</time>
      </trkpt>
      <trkpt lat="44.7528" lon="3.72625">
        <ele>987.07318115234</ele>
        <time>2020-11-02T09:20:39.594Z</time>
      </trkpt>
      <trkpt lat="44.75292" lon="3.72625">
        <ele>988.26556396484</ele>
        <time>2020-11-02T09:20:42.193Z</time>
      </trkpt>
      <trkpt lat="44.75294" lon="3.7261">
        <ele>988.5341796875</ele>
        <time>2020-11-02T09:20:44.794Z</time>
      </trkpt>
      <trkpt lat="44.75298" lon="3.72607">
        <ele>989.15808105469</ele>
        <time>2020-11-02T09:20:47.396Z</time>
      </trkpt>
      <trkpt lat="44.75308" lon="3.72604">
        <ele>990.93377685547</ele>
        <time>2020-11-02T09:20:50.000Z</time>
      </trkpt>
      <trkpt lat="44.75311" lon="3.72607">
        <ele>991.65368652344</ele>
        <time>2020-11-02T09:20:52.605Z</time>
      </trkpt>
      <trkpt lat="44.75312" lon="3.72616">
        <ele>992.27758789062</ele>
        <time>2020-11-02T09:20:55.211Z</time>
      </trkpt>
      <trkpt lat="44.75313" lon="3.72633">
        <ele>993.14874267578</ele>
        <time>2020-11-02T09:20:57.819Z</time>
      </trkpt>
      <trkpt lat="44.75336" lon="3.7263">
        <ele>997.55670166016</ele>
        <time>2020-11-02T09:21:00.432Z</time>
      </trkpt>
      <trkpt lat="44.75336" lon="3.72591">
        <ele>995.99139404297</ele>
        <time>2020-11-02T09:21:03.050Z</time>
      </trkpt>
      <trkpt lat="44.7533" lon="3.72583">
        <ele>994.64764404297</ele>
        <time>2020-11-02T09:21:05.670Z</time>
      </trkpt>
      <trkpt lat="44.75327" lon="3.72581">
        <ele>994.02374267578</ele>
        <time>2020-11-02T09:21:08.291Z</time>
      </trkpt>
    </trkseg>
  </trk>
</gpx>